sensor_id;sensor_type;location;lat;lon;timestamp;pressure;altitude;pressure_sealevel;temperature;humidity
21760;BME280;11041;50.854;20.580;2023-08-31T00:01:00;97916.88;;;15.43;100.00
21760;BME280;11041;50.854;20.580;2023-08-31T00:03:37;97920.41;;;15.44;100.00
21760;BME280;11041;50.854;20.580;2023-08-31T00:06:07;97920.03;;;15.42;100.00
21760;BME280;11041;50.854;20.580;2023-08-31T00:08:37;97925.03;;;15.36;100.00
21760;BME280;11041;50.854;20.580;2023-08-31T00:11:08;97921.38;;;15.32;100.00
21760;BME280;11041;50.854;20.580;2023-08-31T00:13:40;97924.91;;;15.29;100.00
21760;BME280;11041;50.854;20.580;2023-08-31T00:16:10;97914.56;;;15.26;100.00
21760;BME280;11041;50.854;20.580;2023-08-31T00:18:43;97914.88;;;15.21;100.00
21760;BME280;11041;50.854;20.580;2023-08-31T00:21:12;97922.28;;;15.17;100.00
21760;BME280;11041;50.854;20.580;2023-08-31T00:23:42;97921.06;;;15.14;100.00
21760;BME280;11041;50.854;20.580;2023-08-31T00:26:11;97926.53;;;15.10;100.00
21760;BME280;11041;50.854;20.580;2023-08-31T00:28:47;97920.19;;;15.10;100.00
21760;BME280;11041;50.854;20.580;2023-08-31T00:31:20;97921.06;;;15.14;100.00
21760;BME280;11041;50.854;20.580;2023-08-31T00:33:50;97927.09;;;15.20;100.00
21760;BME280;11041;50.854;20.580;2023-08-31T00:36:18;97922.66;;;15.15;100.00
21760;BME280;11041;50.854;20.580;2023-08-31T00:38:49;97921.94;;;15.18;100.00
21760;BME280;11041;50.854;20.580;2023-08-31T00:41:16;97916.03;;;15.20;100.00
21760;BME280;11041;50.854;20.580;2023-08-31T00:43:46;97913.13;;;15.12;100.00
21760;BME280;11041;50.854;20.580;2023-08-31T00:46:18;97917.41;;;15.10;100.00
21760;BME280;11041;50.854;20.580;2023-08-31T00:48:51;97909.06;;;15.06;100.00
21760;BME280;11041;50.854;20.580;2023-08-31T00:51:20;97920.44;;;15.01;100.00
21760;BME280;11041;50.854;20.580;2023-08-31T00:53:54;97909.72;;;15.00;100.00
21760;BME280;11041;50.854;20.580;2023-08-31T00:56:23;97918.38;;;14.98;100.00
21760;BME280;11041;50.854;20.580;2023-08-31T00:58:51;97917.13;;;14.96;100.00
21760;BME280;11041;50.854;20.580;2023-08-31T01:01:38;97910.50;;;15.00;100.00
21760;BME280;11041;50.854;20.580;2023-08-31T01:11:34;97911.84;;;14.87;100.00
21760;BME280;11041;50.854;20.580;2023-08-31T01:14:18;97909.38;;;14.82;100.00
21760;BME280;11041;50.854;20.580;2023-08-31T01:16:52;97921.56;;;14.81;100.00
21760;BME280;11041;50.854;20.580;2023-08-31T01:19:51;97923.63;;;14.84;100.00
21760;BME280;11041;50.854;20.580;2023-08-31T01:22:41;97927.91;;;14.81;100.00
21760;BME280;11041;50.854;20.580;2023-08-31T01:25:11;97931.41;;;14.78;100.00
21760;BME280;11041;50.854;20.580;2023-08-31T01:27:39;97932.19;;;14.79;100.00
21760;BME280;11041;50.854;20.580;2023-08-31T01:30:10;97930.53;;;14.74;100.00
21760;BME280;11041;50.854;20.580;2023-08-31T01:32:45;97928.84;;;14.69;100.00
21760;BME280;11041;50.854;20.580;2023-08-31T01:35:17;97932.34;;;14.66;100.00
21760;BME280;11041;50.854;20.580;2023-08-31T01:37:58;97943.84;;;14.68;100.00
21760;BME280;11041;50.854;20.580;2023-08-31T01:40:51;97925.81;;;14.75;100.00
21760;BME280;11041;50.854;20.580;2023-08-31T01:43:22;97929.66;;;14.70;100.00
21760;BME280;11041;50.854;20.580;2023-08-31T01:45:50;97928.44;;;14.67;100.00
21760;BME280;11041;50.854;20.580;2023-08-31T01:48:20;97920.78;;;14.61;100.00
21760;BME280;11041;50.854;20.580;2023-08-31T01:50:50;97935.69;;;14.56;100.00
21760;BME280;11041;50.854;20.580;2023-08-31T01:53:17;97926.94;;;14.54;100.00
21760;BME280;11041;50.854;20.580;2023-08-31T01:55:48;97918.56;;;14.51;100.00
21760;BME280;11041;50.854;20.580;2023-08-31T01:58:17;97922.84;;;14.48;100.00
21760;BME280;11041;50.854;20.580;2023-08-31T02:00:44;97924.34;;;14.45;100.00
21760;BME280;11041;50.854;20.580;2023-08-31T02:03:13;97919.91;;;14.41;100.00
21760;BME280;11041;50.854;20.580;2023-08-31T02:05:40;97927.03;;;14.42;100.00
21760;BME280;11041;50.854;20.580;2023-08-31T02:08:12;97938.88;;;14.42;100.00
21760;BME280;11041;50.854;20.580;2023-08-31T02:10:41;97933.75;;;14.41;100.00
21760;BME280;11041;50.854;20.580;2023-08-31T02:13:12;97932.06;;;14.36;100.00
21760;BME280;11041;50.854;20.580;2023-08-31T02:15:43;97940.69;;;14.35;100.00
21760;BME280;11041;50.854;20.580;2023-08-31T02:18:15;97928.41;;;14.32;100.00
21760;BME280;11041;50.854;20.580;2023-08-31T02:20:48;97941.03;;;14.33;100.00
21760;BME280;11041;50.854;20.580;2023-08-31T02:23:21;97945.34;;;14.31;100.00
21760;BME280;11041;50.854;20.580;2023-08-31T02:25:53;97946.56;;;14.33;100.00
21760;BME280;11041;50.854;20.580;2023-08-31T02:28:24;97946.66;;;14.37;100.00
21760;BME280;11041;50.854;20.580;2023-08-31T02:31:02;97946.66;;;14.37;100.00
21760;BME280;11041;50.854;20.580;2023-08-31T02:33:33;97946.44;;;14.45;100.00
21760;BME280;11041;50.854;20.580;2023-08-31T02:36:00;97944.97;;;14.48;100.00
21760;BME280;11041;50.854;20.580;2023-08-31T02:38:29;97947.63;;;14.44;100.00
21760;BME280;11041;50.854;20.580;2023-08-31T02:40:58;97947.63;;;14.44;100.00
21760;BME280;11041;50.854;20.580;2023-08-31T02:43:27;97949.22;;;14.45;100.00
21760;BME280;11041;50.854;20.580;2023-08-31T02:46:02;97952.72;;;14.42;100.00
21760;BME280;11041;50.854;20.580;2023-08-31T02:48:37;97950.84;;;14.46;100.00
21760;BME280;11041;50.854;20.580;2023-08-31T02:51:10;97952.81;;;14.46;100.00
21760;BME280;11041;50.854;20.580;2023-08-31T02:53:44;97944.97;;;14.48;100.00
21760;BME280;11041;50.854;20.580;2023-08-31T02:56:13;97950.56;;;14.52;100.00
21760;BME280;11041;50.854;20.580;2023-08-31T02:58:40;97949.06;;;14.54;100.00
21760;BME280;11041;50.854;20.580;2023-08-31T03:01:13;97956.28;;;14.59;100.00
21760;BME280;11041;50.854;20.580;2023-08-31T03:03:42;97956.38;;;14.62;100.00
21760;BME280;11041;50.854;20.580;2023-08-31T03:06:12;97953.22;;;14.64;100.00
21760;BME280;11041;50.854;20.580;2023-08-31T03:08:43;97949.31;;;14.65;100.00
21760;BME280;11041;50.854;20.580;2023-08-31T03:11:14;97955.19;;;14.63;100.00
21760;BME280;11041;50.854;20.580;2023-08-31T03:13:46;97953.16;;;14.60;100.00
21760;BME280;11041;50.854;20.580;2023-08-31T03:16:19;97957.06;;;14.59;100.00
21760;BME280;11041;50.854;20.580;2023-08-31T03:18:48;97961.06;;;14.62;100.00
21760;BME280;11041;50.854;20.580;2023-08-31T03:21:18;97960.28;;;14.61;100.00
21760;BME280;11041;50.854;20.580;2023-08-31T03:23:52;97959.53;;;14.64;100.00
21760;BME280;11041;50.854;20.580;2023-08-31T03:26:22;97951.25;;;14.64;100.00
21760;BME280;11041;50.854;20.580;2023-08-31T03:28:52;97968.13;;;14.59;100.00
21760;BME280;11041;50.854;20.580;2023-08-31T03:31:19;97980.34;;;14.58;100.00
21760;BME280;11041;50.854;20.580;2023-08-31T03:33:50;97982.31;;;14.58;100.00
21760;BME280;11041;50.854;20.580;2023-08-31T03:36:18;97990.97;;;14.56;100.00
21760;BME280;11041;50.854;20.580;2023-08-31T03:38:52;97995.72;;;14.56;100.00
21760;BME280;11041;50.854;20.580;2023-08-31T03:41:20;97998.91;;;14.58;100.00
21760;BME280;11041;50.854;20.580;2023-08-31T03:43:51;97998.47;;;14.56;100.00
21760;BME280;11041;50.854;20.580;2023-08-31T03:46:19;98002.03;;;14.56;100.00
21760;BME280;11041;50.854;20.580;2023-08-31T03:48:50;98001.59;;;14.54;100.00
21760;BME280;11041;50.854;20.580;2023-08-31T03:51:21;98005.50;;;14.53;100.00
21760;BME280;11041;50.854;20.580;2023-08-31T03:53:52;98003.56;;;14.54;100.00
21760;BME280;11041;50.854;20.580;2023-08-31T03:56:25;98004.34;;;14.54;100.00
21760;BME280;11041;50.854;20.580;2023-08-31T03:58:54;98016.28;;;14.58;100.00
21760;BME280;11041;50.854;20.580;2023-08-31T04:01:21;98014.34;;;14.59;100.00
21760;BME280;11041;50.854;20.580;2023-08-31T04:03:51;98018.69;;;14.60;100.00
21760;BME280;11041;50.854;20.580;2023-08-31T04:06:23;98026.63;;;14.61;100.00
21760;BME280;11041;50.854;20.580;2023-08-31T04:08:57;98023.06;;;14.61;100.00
21760;BME280;11041;50.854;20.580;2023-08-31T04:11:26;98018.34;;;14.61;100.00
21760;BME280;11041;50.854;20.580;2023-08-31T04:13:55;98030.63;;;14.64;100.00
21760;BME280;11041;50.854;20.580;2023-08-31T04:16:26;98027.44;;;14.62;100.00
21760;BME280;11041;50.854;20.580;2023-08-31T04:18:56;98025.50;;;14.62;100.00
21760;BME280;11041;50.854;20.580;2023-08-31T04:21:27;98022.34;;;14.64;100.00
21760;BME280;11041;50.854;20.580;2023-08-31T04:23:56;98027.16;;;14.67;100.00
21760;BME280;11041;50.854;20.580;2023-08-31T04:26:25;98026.78;;;14.68;100.00
21760;BME280;11041;50.854;20.580;2023-08-31T04:28:53;98032.78;;;14.70;100.00
21760;BME280;11041;50.854;20.580;2023-08-31T04:31:20;98028.03;;;14.71;100.00
21760;BME280;11041;50.854;20.580;2023-08-31T04:33:54;98029.28;;;14.74;100.00
21760;BME280;11041;50.854;20.580;2023-08-31T04:36:21;98033.28;;;14.76;100.00
21760;BME280;11041;50.854;20.580;2023-08-31T04:38:51;98032.50;;;14.76;100.00
21760;BME280;11041;50.854;20.580;2023-08-31T04:41:23;98031.69;;;14.75;100.00
21760;BME280;11041;50.854;20.580;2023-08-31T04:43:53;98036.44;;;14.75;100.00
21760;BME280;11041;50.854;20.580;2023-08-31T04:46:20;98037.50;;;14.70;100.00
21760;BME280;11041;50.854;20.580;2023-08-31T04:48:47;98033.91;;;14.69;100.00
21760;BME280;11041;50.854;20.580;2023-08-31T04:51:35;98046.59;;;14.70;100.00
21760;BME280;11041;50.854;20.580;2023-08-31T04:54:10;98046.94;;;14.69;100.00
21760;BME280;11041;50.854;20.580;2023-08-31T04:56:37;98053.72;;;14.72;100.00
21760;BME280;11041;50.854;20.580;2023-08-31T04:59:06;98045.16;;;14.77;100.00
21760;BME280;11041;50.854;20.580;2023-08-31T05:01:41;98039.63;;;14.77;100.00
21760;BME280;11041;50.854;20.580;2023-08-31T05:04:13;98042.13;;;14.82;100.00
21760;BME280;11041;50.854;20.580;2023-08-31T05:06:42;98048.81;;;14.81;100.00
21760;BME280;11041;50.854;20.580;2023-08-31T05:09:10;98052.38;;;14.81;100.00
21760;BME280;11041;50.854;20.580;2023-08-31T05:11:37;98050.41;;;14.82;100.00
21760;BME280;11041;50.854;20.580;2023-08-31T05:14:09;98048.16;;;14.87;100.00
21760;BME280;11041;50.854;20.580;2023-08-31T05:16:36;98057.72;;;14.90;100.00
21760;BME280;11041;50.854;20.580;2023-08-31T05:19:02;98066.00;;;14.90;100.00
21760;BME280;11041;50.854;20.580;2023-08-31T05:21:30;98071.63;;;14.94;100.00
21760;BME280;11041;50.854;20.580;2023-08-31T05:23:59;98075.34;;;15.01;100.00
21760;BME280;11041;50.854;20.580;2023-08-31T05:26:27;98065.44;;;15.00;100.00
21760;BME280;11041;50.854;20.580;2023-08-31T05:28:56;98074.53;;;15.01;100.00
21760;BME280;11041;50.854;20.580;2023-08-31T05:31:25;98077.75;;;15.03;100.00
21760;BME280;11041;50.854;20.580;2023-08-31T05:33:53;98084.91;;;15.04;100.00
21760;BME280;11041;50.854;20.580;2023-08-31T05:36:20;98079.06;;;15.09;100.00
21760;BME280;11041;50.854;20.580;2023-08-31T05:38:50;98083.09;;;15.11;100.00
21760;BME280;11041;50.854;20.580;2023-08-31T05:41:17;98081.34;;;15.03;100.00
21760;BME280;11041;50.854;20.580;2023-08-31T05:43:44;98082.25;;;14.91;100.00
21760;BME280;11041;50.854;20.580;2023-08-31T05:46:12;98086.25;;;14.94;100.00
21760;BME280;11041;50.854;20.580;2023-08-31T05:48:38;98088.38;;;15.01;100.00
21760;BME280;11041;50.854;20.580;2023-08-31T05:51:05;98089.34;;;15.08;100.00
21760;BME280;11041;50.854;20.580;2023-08-31T05:53:34;98094.22;;;15.15;100.00
21760;BME280;11041;50.854;20.580;2023-08-31T05:56:01;98103.66;;;15.30;100.00
21760;BME280;11041;50.854;20.580;2023-08-31T05:58:34;98097.03;;;15.34;100.00
21760;BME280;11041;50.854;20.580;2023-08-31T06:01:05;98096.31;;;15.38;100.00
21760;BME280;11041;50.854;20.580;2023-08-31T06:03:31;98096.31;;;15.38;100.00
21760;BME280;11041;50.854;20.580;2023-08-31T06:06:00;98099.13;;;15.41;100.00
21760;BME280;11041;50.854;20.580;2023-08-31T06:08:27;98091.91;;;15.37;100.00
21760;BME280;11041;50.854;20.580;2023-08-31T06:10:57;98091.13;;;15.36;100.00
21760;BME280;11041;50.854;20.580;2023-08-31T06:13:27;98097.84;;;15.35;100.00
21760;BME280;11041;50.854;20.580;2023-08-31T06:15:56;98101.84;;;15.38;100.00
21760;BME280;11041;50.854;20.580;2023-08-31T06:18:26;98096.00;;;15.43;100.00
21760;BME280;11041;50.854;20.580;2023-08-31T06:20:53;98099.66;;;15.47;100.00
21760;BME280;11041;50.854;20.580;2023-08-31T06:23:19;98100.97;;;15.53;100.00
21760;BME280;11041;50.854;20.580;2023-08-31T06:25:47;98105.91;;;15.63;100.00
21760;BME280;11041;50.854;20.580;2023-08-31T06:28:14;98098.94;;;15.69;100.00
21760;BME280;11041;50.854;20.580;2023-08-31T06:30:42;98097.56;;;15.79;100.00
21760;BME280;11041;50.854;20.580;2023-08-31T06:33:16;98101.22;;;15.83;100.00
21760;BME280;11041;50.854;20.580;2023-08-31T06:35:47;98102.38;;;15.82;99.56
21760;BME280;11041;50.854;20.580;2023-08-31T06:38:22;98100.13;;;15.88;100.00
21760;BME280;11041;50.854;20.580;2023-08-31T06:40:49;98111.25;;;15.91;99.93
21760;BME280;11041;50.854;20.580;2023-08-31T06:43:16;98108.94;;;15.93;99.46
21760;BME280;11041;50.854;20.580;2023-08-31T06:45:43;98112.88;;;15.92;99.45
21760;BME280;11041;50.854;20.580;2023-08-31T06:48:11;98120.16;;;16.01;98.94
21760;BME280;11041;50.854;20.580;2023-08-31T06:50:37;98119.78;;;16.02;98.26
21760;BME280;11041;50.854;20.580;2023-08-31T06:53:04;98115.34;;;15.97;97.92
21760;BME280;11041;50.854;20.580;2023-08-31T06:55:34;98127.22;;;15.98;98.17
21760;BME280;11041;50.854;20.580;2023-08-31T06:58:02;98128.47;;;16.01;99.09
21760;BME280;11041;50.854;20.580;2023-08-31T07:00:31;98117.22;;;16.13;97.51
21760;BME280;11041;50.854;20.580;2023-08-31T07:02:58;98130.75;;;16.18;96.55
21760;BME280;11041;50.854;20.580;2023-08-31T07:05:26;98127.63;;;16.19;96.37
21760;BME280;11041;50.854;20.580;2023-08-31T07:07:54;98124.88;;;16.19;95.59
21760;BME280;11041;50.854;20.580;2023-08-31T07:10:26;98129.59;;;16.19;96.97
21760;BME280;11041;50.854;20.580;2023-08-31T07:12:52;98130.47;;;16.23;97.19
21760;BME280;11041;50.854;20.580;2023-08-31T07:15:19;98130.47;;;16.23;96.90
21760;BME280;11041;50.854;20.580;2023-08-31T07:17:46;98123.31;;;16.22;97.17
21760;BME280;11041;50.854;20.580;2023-08-31T07:20:14;98134.06;;;16.24;96.92
21760;BME280;11041;50.854;20.580;2023-08-31T07:22:40;98132.06;;;16.24;95.62
21760;BME280;11041;50.854;20.580;2023-08-31T07:25:08;98137.63;;;16.24;96.24
21760;BME280;11041;50.854;20.580;2023-08-31T07:27:34;98137.22;;;16.26;96.71
21760;BME280;11041;50.854;20.580;2023-08-31T07:30:01;98135.28;;;16.26;97.59
21760;BME280;11041;50.854;20.580;2023-08-31T07:32:30;98143.22;;;16.28;97.93
21760;BME280;11041;50.854;20.580;2023-08-31T07:34:57;98140.97;;;16.33;97.54
21760;BME280;11041;50.854;20.580;2023-08-31T07:37:26;98139.91;;;16.42;96.76
21760;BME280;11041;50.854;20.580;2023-08-31T07:39:53;98129.56;;;16.38;95.48
21760;BME280;11041;50.854;20.580;2023-08-31T07:42:20;98140.66;;;16.38;95.24
21760;BME280;11041;50.854;20.580;2023-08-31T07:44:48;98146.69;;;16.44;96.29
21760;BME280;11041;50.854;20.580;2023-08-31T07:47:14;98146.47;;;16.53;94.68
21760;BME280;11041;50.854;20.580;2023-08-31T07:49:43;98150.03;;;16.53;95.40
21760;BME280;11041;50.854;20.580;2023-08-31T07:52:10;98146.25;;;16.65;96.41
21760;BME280;11041;50.854;20.580;2023-08-31T07:54:38;98156.09;;;16.82;96.10
21760;BME280;11041;50.854;20.580;2023-08-31T07:57:04;98150.09;;;17.03;94.96
21760;BME280;11041;50.854;20.580;2023-08-31T07:59:31;98149.34;;;17.33;90.17
21760;BME280;11041;50.854;20.580;2023-08-31T08:01:58;98151.19;;;17.52;90.51
21760;BME280;11041;50.854;20.580;2023-08-31T08:04:27;98150.16;;;17.63;88.84
21760;BME280;11041;50.854;20.580;2023-08-31T08:06:58;98151.91;;;17.75;89.67
21760;BME280;11041;50.854;20.580;2023-08-31T08:09:24;98151.28;;;17.89;88.93
21760;BME280;11041;50.854;20.580;2023-08-31T08:11:52;98149.09;;;18.05;86.16
21760;BME280;11041;50.854;20.580;2023-08-31T08:14:19;98157.50;;;18.09;83.99
21760;BME280;11041;50.854;20.580;2023-08-31T08:16:45;98164.03;;;17.94;84.58
21760;BME280;11041;50.854;20.580;2023-08-31T08:19:14;98158.50;;;17.94;84.58
21760;BME280;11041;50.854;20.580;2023-08-31T08:21:46;98144.47;;;17.83;81.04
21760;BME280;11041;50.854;20.580;2023-08-31T08:24:15;98155.38;;;17.68;80.41
21760;BME280;11041;50.854;20.580;2023-08-31T08:26:44;98151.31;;;17.62;82.97
21760;BME280;11041;50.854;20.580;2023-08-31T08:29:14;98159.66;;;17.62;84.02
21760;BME280;11041;50.854;20.580;2023-08-31T08:31:42;98161.38;;;17.71;84.41
21760;BME280;11041;50.854;20.580;2023-08-31T08:34:10;98163.84;;;17.79;83.54
21760;BME280;11041;50.854;20.580;2023-08-31T08:36:38;98165.94;;;17.86;84.10
21760;BME280;11041;50.854;20.580;2023-08-31T08:39:06;98164.94;;;18.01;82.24
21760;BME280;11041;50.854;20.580;2023-08-31T08:41:34;98172.69;;;18.19;77.97
21760;BME280;11041;50.854;20.580;2023-08-31T08:44:05;98174.00;;;18.28;80.98
21760;BME280;11041;50.854;20.580;2023-08-31T08:46:36;98172.94;;;18.40;80.70
21760;BME280;11041;50.854;20.580;2023-08-31T08:49:05;98167.94;;;18.60;77.85
21760;BME280;11041;50.854;20.580;2023-08-31T08:51:33;98188.66;;;18.63;76.34
21760;BME280;11041;50.854;20.580;2023-08-31T08:54:00;98177.50;;;18.59;76.72
21760;BME280;11041;50.854;20.580;2023-08-31T08:56:27;98177.16;;;18.64;76.00
21760;BME280;11041;50.854;20.580;2023-08-31T08:58:54;98181.41;;;18.55;76.46
21760;BME280;11041;50.854;20.580;2023-08-31T09:01:23;98188.19;;;18.57;75.92
21760;BME280;11041;50.854;20.580;2023-08-31T09:03:51;98186.66;;;18.63;77.84
21760;BME280;11041;50.854;20.580;2023-08-31T09:06:17;98181.22;;;18.74;79.34
21760;BME280;11041;50.854;20.580;2023-08-31T09:08:54;98187.38;;;18.94;73.73
21760;BME280;11041;50.854;20.580;2023-08-31T09:11:23;98184.22;;;18.96;74.46
21760;BME280;11041;50.854;20.580;2023-08-31T09:13:53;98192.28;;;19.11;74.37
21760;BME280;11041;50.854;20.580;2023-08-31T09:16:28;98173.66;;;19.23;76.69
21760;BME280;11041;50.854;20.580;2023-08-31T09:18:57;98176.13;;;19.35;76.88
21760;BME280;11041;50.854;20.580;2023-08-31T09:21:38;98180.66;;;19.54;70.71
21760;BME280;11041;50.854;20.580;2023-08-31T09:24:07;98183.41;;;19.50;71.30
21760;BME280;11041;50.854;20.580;2023-08-31T09:26:48;98184.56;;;19.46;73.70
21760;BME280;11041;50.854;20.580;2023-08-31T09:29:19;98199.72;;;19.52;74.62
21760;BME280;11041;50.854;20.580;2023-08-31T09:31:47;98197.41;;;19.61;70.96
21760;BME280;11041;50.854;20.580;2023-08-31T09:34:16;98202.94;;;19.54;72.67
21760;BME280;11041;50.854;20.580;2023-08-31T09:36:45;98198.53;;;19.53;74.29
21760;BME280;11041;50.854;20.580;2023-08-31T09:39:14;98197.78;;;19.59;72.63
21760;BME280;11041;50.854;20.580;2023-08-31T09:41:57;98207.72;;;19.53;71.44
21760;BME280;11041;50.854;20.580;2023-08-31T09:44:26;98204.94;;;19.53;72.48
21760;BME280;11041;50.854;20.580;2023-08-31T09:46:55;98206.97;;;19.64;73.83
21760;BME280;11041;50.854;20.580;2023-08-31T09:49:25;98207.78;;;19.64;73.02
21760;BME280;11041;50.854;20.580;2023-08-31T09:51:53;98204.97;;;19.64;70.95
21760;BME280;11041;50.854;20.580;2023-08-31T09:54:21;98210.94;;;19.59;73.04
21760;BME280;11041;50.854;20.580;2023-08-31T09:56:55;98217.69;;;19.58;75.11
21760;BME280;11041;50.854;20.580;2023-08-31T09:59:24;98224.91;;;19.66;73.75
21760;BME280;11041;50.854;20.580;2023-08-31T10:01:52;98216.59;;;19.70;73.51
21760;BME280;11041;50.854;20.580;2023-08-31T10:04:18;98217.44;;;19.77;72.78
21760;BME280;11041;50.854;20.580;2023-08-31T10:06:48;98221.81;;;19.78;70.54
21760;BME280;11041;50.854;20.580;2023-08-31T10:09:16;98233.34;;;19.77;70.94
21760;BME280;11041;50.854;20.580;2023-08-31T10:11:43;98235.72;;;19.71;70.19
21760;BME280;11041;50.854;20.580;2023-08-31T10:14:11;98228.13;;;19.68;72.43
21760;BME280;11041;50.854;20.580;2023-08-31T10:16:40;98226.56;;;19.74;71.65
21760;BME280;11041;50.854;20.580;2023-08-31T10:19:09;98223.03;;;19.77;72.64
21760;BME280;11041;50.854;20.580;2023-08-31T10:21:35;98230.22;;;19.86;70.51
21760;BME280;11041;50.854;20.580;2023-08-31T10:24:04;98228.69;;;19.95;70.72
21760;BME280;11041;50.854;20.580;2023-08-31T10:26:34;98228.34;;;20.08;67.29
21760;BME280;11041;50.854;20.580;2023-08-31T10:29:01;98217.16;;;19.97;68.79
21760;BME280;11041;50.854;20.580;2023-08-31T10:31:36;98240.22;;;19.94;68.62
21760;BME280;11041;50.854;20.580;2023-08-31T10:34:06;98233.09;;;20.00;67.49
21760;BME280;11041;50.854;20.580;2023-08-31T10:36:39;98230.75;;;20.09;69.80
21760;BME280;11041;50.854;20.580;2023-08-31T10:39:19;98234.75;;;20.15;67.01
21760;BME280;11041;50.854;20.580;2023-08-31T10:44:26;98230.03;;;20.30;66.17
21760;BME280;11041;50.854;20.580;2023-08-31T10:47:00;98240.00;;;20.31;66.61
21760;BME280;11041;50.854;20.580;2023-08-31T10:49:31;98233.63;;;20.31;65.28
21760;BME280;11041;50.854;20.580;2023-08-31T10:52:19;98244.00;;;20.34;67.03
21760;BME280;11041;50.854;20.580;2023-08-31T10:54:47;98240.78;;;20.32;66.04
21760;BME280;11041;50.854;20.580;2023-08-31T10:57:14;98241.59;;;20.32;66.61
21760;BME280;11041;50.854;20.580;2023-08-31T10:59:53;98236.81;;;20.33;66.10
21760;BME280;11041;50.854;20.580;2023-08-31T11:02:36;98240.03;;;20.35;63.98
21760;BME280;11041;50.854;20.580;2023-08-31T11:07:48;98247.19;;;20.36;63.63
21760;BME280;11041;50.854;20.580;2023-08-31T11:10:24;98244.03;;;20.41;62.42
21760;BME280;11041;50.854;20.580;2023-08-31T11:12:56;98241.19;;;20.34;64.59
21760;BME280;11041;50.854;20.580;2023-08-31T11:15:26;98247.22;;;20.43;67.76
21760;BME280;11041;50.854;20.580;2023-08-31T11:17:58;98239.75;;;20.61;64.17
21760;BME280;11041;50.854;20.580;2023-08-31T11:20:26;98236.16;;;20.75;65.12
21760;BME280;11041;50.854;20.580;2023-08-31T11:23:00;98243.34;;;20.80;65.10
21760;BME280;11041;50.854;20.580;2023-08-31T11:25:31;98244.97;;;20.81;63.96
21760;BME280;11041;50.854;20.580;2023-08-31T11:28:05;98246.53;;;20.75;66.63
21760;BME280;11041;50.854;20.580;2023-08-31T11:30:35;98249.31;;;20.75;65.57
21760;BME280;11041;50.854;20.580;2023-08-31T11:33:07;98250.53;;;20.74;66.09
21760;BME280;11041;50.854;20.580;2023-08-31T11:35:47;98247.72;;;20.67;62.56
21760;BME280;11041;50.854;20.580;2023-08-31T11:38:17;98239.34;;;20.67;62.33
21760;BME280;11041;50.854;20.580;2023-08-31T11:40:45;98238.53;;;20.62;65.04
21760;BME280;11041;50.854;20.580;2023-08-31T11:43:17;98233.38;;;20.72;63.93
21760;BME280;11041;50.854;20.580;2023-08-31T11:45:46;98234.59;;;20.85;64.67
21760;BME280;11041;50.854;20.580;2023-08-31T11:48:14;98246.59;;;21.00;60.36
21760;BME280;11041;50.854;20.580;2023-08-31T11:50:46;98232.63;;;21.07;59.53
21760;BME280;11041;50.854;20.580;2023-08-31T11:53:15;98233.84;;;21.10;59.01
21760;BME280;11041;50.854;20.580;2023-08-31T11:55:53;98235.81;;;21.13;62.08
21760;BME280;11041;50.854;20.580;2023-08-31T11:58:25;98225.03;;;21.25;60.56
21760;BME280;11041;50.854;20.580;2023-08-31T12:00:57;98234.63;;;21.28;61.16
21760;BME280;11041;50.854;20.580;2023-08-31T12:03:28;98233.03;;;21.20;60.41
21760;BME280;11041;50.854;20.580;2023-08-31T12:06:09;98228.25;;;21.17;60.96
21760;BME280;11041;50.854;20.580;2023-08-31T12:08:37;98228.25;;;21.24;63.32
21760;BME280;11041;50.854;20.580;2023-08-31T12:11:07;98230.63;;;21.36;61.63
21760;BME280;11041;50.854;20.580;2023-08-31T12:13:33;98225.47;;;21.42;58.57
21760;BME280;11041;50.854;20.580;2023-08-31T12:16:00;98220.25;;;21.37;60.61
21760;BME280;11041;50.854;20.580;2023-08-31T12:18:30;98226.66;;;21.41;61.90
21760;BME280;11041;50.854;20.580;2023-08-31T12:21:01;98219.47;;;21.51;60.06
21760;BME280;11041;50.854;20.580;2023-08-31T12:23:28;98213.06;;;21.61;59.98
21760;BME280;11041;50.854;20.580;2023-08-31T12:25:57;98217.44;;;21.69;59.18
21760;BME280;11041;50.854;20.580;2023-08-31T12:28:25;98214.19;;;21.85;57.37
21760;BME280;11041;50.854;20.580;2023-08-31T12:30:55;98214.59;;;21.83;60.18
21760;BME280;11041;50.854;20.580;2023-08-31T12:33:29;98218.19;;;21.77;59.32
21760;BME280;11041;50.854;20.580;2023-08-31T12:35:57;98217.38;;;21.83;61.60
21760;BME280;11041;50.854;20.580;2023-08-31T12:38:23;98216.16;;;21.99;62.08
21760;BME280;11041;50.854;20.580;2023-08-31T12:40:51;98214.09;;;22.21;57.64
21760;BME280;11041;50.854;20.580;2023-08-31T12:43:18;98218.81;;;22.42;57.54
21760;BME280;11041;50.854;20.580;2023-08-31T12:45:47;98217.59;;;22.43;55.57
21760;BME280;11041;50.854;20.580;2023-08-31T12:48:17;98221.59;;;22.49;55.31
21760;BME280;11041;50.854;20.580;2023-08-31T12:50:46;98213.53;;;22.54;55.18
21760;BME280;11041;50.854;20.580;2023-08-31T12:53:15;98207.06;;;22.68;56.61
21760;BME280;11041;50.854;20.580;2023-08-31T12:55:42;98214.25;;;22.73;56.63
21760;BME280;11041;50.854;20.580;2023-08-31T12:58:08;98212.66;;;22.68;56.13
21760;BME280;11041;50.854;20.580;2023-08-31T13:00:35;98210.25;;;22.67;56.12
21760;BME280;11041;50.854;20.580;2023-08-31T13:03:04;98211.81;;;22.75;57.32
21760;BME280;11041;50.854;20.580;2023-08-31T13:05:33;98201.34;;;22.86;53.46
21760;BME280;11041;50.854;20.580;2023-08-31T13:07:59;98206.06;;;22.96;54.04
21760;BME280;11041;50.854;20.580;2023-08-31T13:10:27;98206.47;;;23.02;55.96
21760;BME280;11041;50.854;20.580;2023-08-31T13:12:55;98200.75;;;23.13;55.86